createdAt,value
2022-12-11T00:02:07.752Z,38.22
2022-12-11T00:04:34.095Z,39.53
2022-12-11T00:07:00.357Z,32.45
2022-12-11T00:09:26.617Z,33.00
2022-12-11T00:11:52.889Z,28.13
2022-12-11T00:14:19.274Z,29.98
2022-12-11T00:16:47.638Z,33.90
2022-12-11T00:19:13.930Z,32.30
2022-12-11T00:21:40.208Z,27.95
2022-12-11T00:24:06.744Z,31.35
2022-12-11T00:26:33.221Z,28.13
2022-12-11T00:28:59.447Z,34.40
2022-12-11T00:31:25.778Z,33.15
2022-12-11T00:33:53.461Z,29.13
2022-12-11T00:36:21.944Z,35.42
2022-12-11T00:38:48.979Z,34.55
2022-12-11T00:41:16.387Z,36.35
2022-12-11T00:43:42.820Z,33.55
2022-12-11T00:46:09.303Z,29.45
2022-12-11T00:48:35.691Z,35.67
2022-12-11T00:51:03.361Z,37.35
2022-12-11T00:53:29.731Z,36.13
2022-12-11T00:55:55.992Z,38.20
2022-12-11T00:58:22.710Z,33.88
2022-12-11T01:00:51.690Z,33.28
2022-12-11T01:03:17.953Z,41.85
2022-12-11T01:05:51.109Z,32.25
2022-12-11T01:08:18.842Z,36.30
2022-12-11T01:10:45.174Z,31.90
2022-12-11T01:13:11.880Z,37.97
2022-12-11T01:15:41.630Z,33.30
2022-12-11T01:18:08.545Z,38.55
2022-12-11T01:20:34.826Z,41.95
2022-12-11T01:23:01.171Z,35.10
2022-12-11T01:25:28.810Z,38.90
2022-12-11T01:27:55.530Z,35.80
2022-12-11T01:30:22.580Z,40.08
2022-12-11T01:32:48.998Z,37.35
2022-12-11T01:35:15.794Z,32.22
2022-12-11T01:37:42.131Z,40.03
2022-12-11T01:40:09.281Z,37.95
2022-12-11T01:42:37.205Z,34.35
2022-12-11T01:45:24.640Z,37.03
2022-12-11T01:47:54.862Z,34.15
2022-12-11T01:50:21.221Z,35.90
2022-12-11T01:52:48.110Z,29.55
2022-12-11T01:55:14.509Z,34.17
2022-12-11T01:57:43.172Z,39.83
2022-12-11T02:00:10.081Z,31.00
2022-12-11T02:02:39.332Z,31.88
2022-12-11T02:05:06.310Z,36.72
2022-12-11T02:07:43.802Z,34.83
2022-12-11T02:10:10.867Z,39.03
2022-12-11T02:12:39.334Z,29.95
2022-12-11T02:15:10.212Z,30.83
2022-12-11T02:17:40.308Z,33.80
2022-12-11T02:20:10.291Z,27.75
2022-12-11T02:22:47.831Z,29.40
2022-12-11T02:25:20.022Z,30.75
2022-12-11T02:27:47.577Z,37.60
2022-12-11T02:30:16.266Z,36.80
2022-12-11T02:32:45.170Z,35.30
2022-12-11T02:35:15.000Z,32.80
2022-12-11T02:37:43.174Z,32.25
2022-12-11T02:40:11.182Z,30.03
2022-12-11T02:42:38.618Z,31.48
2022-12-11T02:45:07.113Z,27.80
2022-12-11T02:47:35.352Z,29.33
2022-12-11T02:50:03.271Z,27.80
2022-12-11T02:52:31.423Z,27.40
2022-12-11T02:55:00.422Z,26.10
2022-12-11T02:57:28.868Z,26.92
2022-12-11T02:59:55.138Z,24.33
2022-12-11T03:02:21.449Z,22.15
2022-12-11T03:04:49.199Z,26.98
2022-12-11T03:07:17.616Z,22.75
2022-12-11T03:09:44.727Z,21.98
2022-12-11T03:12:12.460Z,19.48
2022-12-11T03:14:40.076Z,21.55
2022-12-11T03:17:11.811Z,20.77
2022-12-11T03:19:39.764Z,22.75
2022-12-11T03:22:09.871Z,23.13
2022-12-11T03:24:38.683Z,20.25
2022-12-11T03:27:11.348Z,19.38
2022-12-11T03:29:39.843Z,21.85
2022-12-11T03:32:07.882Z,18.60
2022-12-11T03:34:38.264Z,17.27
2022-12-11T03:37:04.975Z,22.10
2022-12-11T03:39:35.623Z,23.15
2022-12-11T03:42:03.336Z,21.90
2022-12-11T03:44:30.127Z,20.10
2022-12-11T03:46:57.127Z,22.15
2022-12-11T03:49:26.564Z,20.85
2022-12-11T03:51:54.171Z,21.23
2022-12-11T03:54:20.660Z,18.13
2022-12-11T03:56:48.895Z,20.70
2022-12-11T03:59:15.164Z,21.37
2022-12-11T04:01:41.912Z,22.15
2022-12-11T04:04:08.265Z,16.45
2022-12-11T04:06:34.604Z,21.38
2022-12-11T04:09:00.856Z,18.33
2022-12-11T04:11:27.136Z,22.17
2022-12-11T04:13:54.761Z,16.65
2022-12-11T04:16:21.054Z,18.80
2022-12-11T04:18:47.345Z,19.10
2022-12-11T04:21:13.600Z,20.63
2022-12-11T04:23:40.210Z,16.15
2022-12-11T04:26:07.180Z,18.98
2022-12-11T04:28:33.723Z,19.55
2022-12-11T04:31:01.876Z,20.83
2022-12-11T04:33:28.302Z,17.00
2022-12-11T04:35:54.634Z,18.90
2022-12-11T04:38:21.005Z,18.00
2022-12-11T04:40:47.281Z,22.50
2022-12-11T04:43:13.561Z,23.98
2022-12-11T04:45:39.867Z,21.70
2022-12-11T04:48:07.559Z,19.85
2022-12-11T04:50:33.821Z,18.35
2022-12-11T04:53:00.115Z,22.02
2022-12-11T04:55:26.352Z,21.17
2022-12-11T04:57:52.591Z,22.23
2022-12-11T05:00:18.946Z,19.52
2022-12-11T05:02:45.235Z,17.90
2022-12-11T05:05:13.354Z,23.90
2022-12-11T05:07:40.038Z,19.38
2022-12-11T05:10:06.973Z,21.13
2022-12-11T05:12:33.215Z,22.77
2022-12-11T05:14:59.498Z,18.00
2022-12-11T05:17:25.736Z,21.80
2022-12-11T05:19:52.007Z,19.33
2022-12-11T05:22:19.621Z,20.10
2022-12-11T05:24:46.045Z,19.15
2022-12-11T05:27:12.308Z,19.58
2022-12-11T05:29:38.564Z,21.20
2022-12-11T05:32:04.956Z,19.95
2022-12-11T05:34:31.202Z,19.67
2022-12-11T05:36:57.430Z,23.45
2022-12-11T05:39:25.058Z,18.98
2022-12-11T05:41:51.360Z,23.15
2022-12-11T05:44:17.602Z,25.27
2022-12-11T05:46:43.876Z,19.52
2022-12-11T05:49:10.468Z,20.95
2022-12-11T05:51:36.777Z,25.27
2022-12-11T05:54:03.152Z,20.10
2022-12-11T05:56:31.931Z,20.13
2022-12-11T05:58:58.922Z,20.67
2022-12-11T06:01:25.893Z,21.98
2022-12-11T06:03:52.921Z,21.33
2022-12-11T06:06:19.173Z,24.08
2022-12-11T06:08:45.592Z,22.48
2022-12-11T06:11:12.145Z,25.00
2022-12-11T06:13:39.762Z,19.92
2022-12-11T06:16:06.674Z,17.98
2022-12-11T06:18:35.369Z,23.85
2022-12-11T06:21:01.713Z,22.15
2022-12-11T06:23:28.010Z,21.98
2022-12-11T06:25:54.254Z,21.63
2022-12-11T06:28:20.509Z,21.38
2022-12-11T06:30:48.090Z,18.92
2022-12-11T06:33:14.340Z,22.55
2022-12-11T06:35:42.433Z,20.77
2022-12-11T06:38:09.002Z,18.27
2022-12-11T06:40:35.291Z,22.95
2022-12-11T06:43:01.558Z,19.92
2022-12-11T06:45:27.861Z,24.63
2022-12-11T06:47:55.506Z,22.13
2022-12-11T06:50:21.792Z,20.85
2022-12-11T06:52:48.021Z,23.40
2022-12-11T06:55:14.344Z,18.45
2022-12-11T06:57:40.678Z,22.15
2022-12-11T07:00:07.466Z,23.23
2022-12-11T07:02:33.779Z,20.42
2022-12-11T07:05:01.442Z,23.35
2022-12-11T07:07:27.785Z,21.40
2022-12-11T07:09:54.066Z,18.83
2022-12-11T07:12:20.318Z,19.20
2022-12-11T07:14:46.626Z,19.08
2022-12-11T07:17:12.873Z,22.25
2022-12-11T07:19:39.130Z,17.08
2022-12-11T07:22:06.742Z,20.23
2022-12-11T07:24:33.033Z,18.80
2022-12-11T07:26:59.308Z,23.23
2022-12-11T07:29:25.614Z,20.17
2022-12-11T07:31:51.924Z,25.73
2022-12-11T07:34:18.230Z,21.10
2022-12-11T07:36:44.641Z,18.75
2022-12-11T07:39:12.585Z,23.05
2022-12-11T07:41:38.908Z,18.55
2022-12-11T07:44:09.982Z,19.25
2022-12-11T07:46:37.225Z,17.42
2022-12-11T07:49:04.520Z,18.83
2022-12-11T07:51:31.836Z,17.50
2022-12-11T07:53:58.940Z,20.58
2022-12-11T07:56:26.893Z,24.48
2022-12-11T07:58:53.465Z,21.55
2022-12-11T08:01:20.961Z,18.88
2022-12-11T08:03:47.436Z,22.25
2022-12-11T08:06:13.805Z,20.00
2022-12-11T08:08:40.377Z,17.40
2022-12-11T08:11:07.713Z,16.77
2022-12-11T08:13:35.598Z,19.20
2022-12-11T08:16:03.076Z,16.67
2022-12-11T08:18:29.369Z,17.27
2022-12-11T08:20:55.656Z,19.85
2022-12-11T08:23:21.992Z,20.60
2022-12-11T08:25:48.905Z,20.15
2022-12-11T08:28:15.185Z,18.67
2022-12-11T08:30:42.886Z,17.65
2022-12-11T08:33:09.173Z,19.42
2022-12-11T08:35:38.354Z,17.08
2022-12-11T08:38:04.649Z,18.17
2022-12-11T08:40:30.922Z,21.65
2022-12-11T08:42:57.415Z,20.73
2022-12-11T08:45:23.777Z,18.52
2022-12-11T08:47:51.449Z,20.33
2022-12-11T08:50:17.879Z,16.17
2022-12-11T08:52:44.218Z,18.98
2022-12-11T08:55:10.693Z,17.98
2022-12-11T08:57:37.287Z,18.30
2022-12-11T09:00:03.850Z,16.73
2022-12-11T09:02:30.193Z,17.33
2022-12-11T09:04:57.905Z,23.00
2022-12-11T09:07:24.214Z,23.23
2022-12-11T09:09:50.454Z,31.98
2022-12-11T09:12:16.707Z,27.02
2022-12-11T09:14:42.951Z,21.83
2022-12-11T09:17:09.200Z,27.30
2022-12-11T09:19:35.422Z,25.98
2022-12-11T09:22:03.041Z,19.40
2022-12-11T09:24:29.394Z,20.08
2022-12-11T09:26:55.690Z,22.90
2022-12-11T09:29:21.963Z,21.35
2022-12-11T09:31:48.247Z,18.38
2022-12-11T09:34:14.538Z,23.58
2022-12-11T09:36:41.852Z,20.20
2022-12-11T09:39:11.372Z,25.10
2022-12-11T09:41:47.643Z,23.30
2022-12-11T09:44:20.099Z,29.75
2022-12-11T09:46:46.824Z,23.50
2022-12-11T09:49:17.774Z,25.80
2022-12-11T09:51:47.035Z,24.35
2022-12-11T09:54:14.903Z,23.83
2022-12-11T09:56:42.567Z,25.15
2022-12-11T09:59:13.220Z,25.55
2022-12-11T10:01:42.769Z,25.55
2022-12-11T10:04:17.175Z,22.65
2022-12-11T10:06:46.887Z,22.42
2022-12-11T10:09:19.371Z,23.92
2022-12-11T10:12:06.669Z,28.40
2022-12-11T10:14:39.849Z,27.05
2022-12-11T10:17:10.633Z,29.08
2022-12-11T10:19:37.012Z,26.20
2022-12-11T10:22:03.671Z,26.38
2022-12-11T10:25:09.553Z,26.05
2022-12-11T10:27:21.060Z,22.88
2022-12-11T10:29:47.556Z,23.88
2022-12-11T10:32:21.025Z,25.30
2022-12-11T10:34:49.078Z,27.67
2022-12-11T10:37:15.364Z,23.20
2022-12-11T10:39:43.000Z,24.02
2022-12-11T10:42:14.169Z,28.98
2022-12-11T10:44:40.461Z,22.90
2022-12-11T10:47:09.901Z,24.58
2022-12-11T10:49:36.984Z,28.42
2022-12-11T10:52:09.877Z,27.02
2022-12-11T10:54:37.777Z,27.02
2022-12-11T10:57:06.510Z,25.80
2022-12-11T10:59:34.282Z,24.42
2022-12-11T11:02:00.880Z,24.83
2022-12-11T11:04:29.418Z,35.95
2022-12-11T11:07:01.108Z,34.47
2022-12-11T11:09:28.801Z,29.98
2022-12-11T11:11:55.069Z,31.52
2022-12-11T11:14:22.678Z,32.22
2022-12-11T11:16:49.630Z,32.40
2022-12-11T11:19:22.035Z,35.50
2022-12-11T11:21:49.984Z,32.47
2022-12-11T11:24:34.218Z,27.70
2022-12-11T11:27:15.976Z,32.70
2022-12-11T11:29:45.781Z,31.83
2022-12-11T11:32:16.917Z,28.08
2022-12-11T11:34:43.215Z,28.65
2022-12-11T11:37:21.950Z,36.00
2022-12-11T11:39:50.029Z,29.50
2022-12-11T11:42:18.899Z,23.73
2022-12-11T11:44:57.839Z,27.73
2022-12-11T11:47:25.935Z,31.52
2022-12-11T11:49:55.069Z,31.92
2022-12-11T11:52:24.302Z,35.80
2022-12-11T11:54:52.806Z,33.80
2022-12-11T11:57:22.824Z,30.13
2022-12-11T11:59:51.931Z,28.88
2022-12-11T12:04:45.598Z,31.10
2022-12-11T12:07:17.858Z,31.92
2022-12-11T12:09:47.988Z,34.63
2022-12-11T12:12:24.761Z,31.50
2022-12-11T12:15:01.883Z,33.00
2022-12-11T12:17:31.536Z,30.05
2022-12-11T12:20:03.131Z,31.33
2022-12-11T12:22:39.923Z,30.00
2022-12-11T12:25:14.323Z,31.00
2022-12-11T12:27:53.291Z,28.95
2022-12-11T12:32:55.692Z,38.25
2022-12-11T12:35:27.115Z,35.53
2022-12-11T12:37:56.994Z,29.48
2022-12-11T12:40:29.079Z,33.67
2022-12-11T12:43:00.116Z,37.00
2022-12-11T12:45:27.901Z,31.00
2022-12-11T12:47:55.515Z,39.25
2022-12-11T12:50:23.803Z,28.65
2022-12-11T12:52:50.607Z,26.33
2022-12-11T12:55:19.075Z,39.10
2022-12-11T12:57:46.939Z,32.22
2022-12-11T13:00:13.882Z,32.67
2022-12-11T13:02:47.743Z,30.65
2022-12-11T13:05:20.712Z,33.25
2022-12-11T13:07:54.009Z,35.70
2022-12-11T13:10:22.931Z,31.02
2022-12-11T13:12:49.239Z,25.20
2022-12-11T13:15:25.368Z,35.72
2022-12-11T13:17:51.667Z,29.67
2022-12-11T13:20:20.002Z,33.28
2022-12-11T13:23:05.164Z,31.00
2022-12-11T13:25:45.163Z,36.20
2022-12-11T13:28:20.080Z,38.63
2022-12-11T13:30:57.363Z,34.83
2022-12-11T13:33:23.723Z,34.05
2022-12-11T13:36:02.593Z,33.47
2022-12-11T13:38:28.871Z,32.83
2022-12-11T13:40:56.527Z,37.95
2022-12-11T13:43:25.603Z,29.95
2022-12-11T13:48:21.032Z,26.83
2022-12-11T13:50:47.728Z,26.95
2022-12-11T13:53:15.808Z,25.27
2022-12-11T13:55:42.073Z,25.52
2022-12-11T13:58:16.433Z,23.30
2022-12-11T14:00:42.778Z,26.35
2022-12-11T14:03:10.229Z,28.17
2022-12-11T14:05:36.585Z,24.95
2022-12-11T14:08:07.304Z,26.98
2022-12-11T14:10:33.624Z,25.33
2022-12-11T14:13:01.492Z,29.20
2022-12-11T14:15:29.817Z,25.60
2022-12-11T14:17:56.373Z,31.13
2022-12-11T14:20:24.069Z,27.63
2022-12-11T14:22:50.380Z,27.48
2022-12-11T14:25:19.260Z,31.25
2022-12-11T14:27:47.686Z,28.73
2022-12-11T14:30:20.164Z,28.17
2022-12-11T14:32:48.573Z,31.05
2022-12-11T14:35:18.249Z,30.63
2022-12-11T14:37:44.665Z,26.20
2022-12-11T14:40:15.777Z,33.45
2022-12-11T14:42:44.094Z,37.95
2022-12-11T14:45:16.188Z,31.45
2022-12-11T14:47:43.289Z,28.65
2022-12-11T14:50:15.401Z,35.95
2022-12-11T14:52:43.455Z,32.22
2022-12-11T14:55:15.413Z,29.63
2022-12-11T14:57:43.772Z,30.30
2022-12-11T15:00:21.916Z,26.77
2022-12-11T15:02:56.487Z,33.33
2022-12-11T15:05:24.228Z,32.03
2022-12-11T15:07:56.038Z,28.10
2022-12-11T15:10:23.889Z,25.92
2022-12-11T15:12:50.261Z,29.95
2022-12-11T15:15:16.765Z,24.85
2022-12-11T15:17:46.093Z,27.45
2022-12-11T15:20:22.373Z,24.85
2022-12-11T15:22:50.575Z,25.42
2022-12-11T15:25:18.891Z,26.90
2022-12-11T15:27:45.218Z,28.43
2022-12-11T15:30:15.446Z,29.80
2022-12-11T15:32:41.752Z,29.98
2022-12-11T15:35:21.197Z,25.10
2022-12-11T15:37:53.397Z,25.17
2022-12-11T15:40:19.704Z,28.33
2022-12-11T15:42:46.210Z,25.13
2022-12-11T15:45:16.085Z,25.20
2022-12-11T15:47:42.445Z,23.90
2022-12-11T15:50:14.709Z,29.58
2022-12-11T15:52:41.041Z,33.00
2022-12-11T15:55:09.314Z,27.52
2022-12-11T15:57:36.051Z,28.20
2022-12-11T16:00:02.931Z,27.40
2022-12-11T16:02:31.266Z,27.02
2022-12-11T16:04:57.647Z,34.08
2022-12-11T16:07:24.659Z,29.13
2022-12-11T16:09:51.750Z,27.40
2022-12-11T16:12:19.618Z,31.85
2022-12-11T16:14:46.294Z,27.33
2022-12-11T16:17:13.398Z,30.48
2022-12-11T16:19:40.722Z,29.92
2022-12-11T16:22:07.481Z,28.05
2022-12-11T16:24:33.762Z,30.27
2022-12-11T16:27:00.039Z,30.73
2022-12-11T16:29:27.994Z,36.45
2022-12-11T16:31:54.270Z,33.45
2022-12-11T16:34:24.273Z,41.40
2022-12-11T16:36:50.532Z,43.20
2022-12-11T16:39:16.806Z,38.60
2022-12-11T16:41:43.054Z,37.58
2022-12-11T16:44:09.350Z,36.40
2022-12-11T16:46:37.317Z,32.40
2022-12-11T16:49:03.887Z,23.42
2022-12-11T16:51:30.199Z,27.83
2022-12-11T16:53:56.464Z,25.13
2022-12-11T16:56:22.782Z,25.35
2022-12-11T16:58:49.102Z,27.23
2022-12-11T17:01:15.520Z,26.80
2022-12-11T17:03:43.597Z,24.92
2022-12-11T17:06:10.635Z,27.38
2022-12-11T17:08:36.973Z,24.85
2022-12-11T17:11:04.651Z,23.95
2022-12-11T17:13:35.842Z,24.43
2022-12-11T17:16:04.095Z,23.10
2022-12-11T17:18:30.370Z,25.55
2022-12-11T17:20:57.994Z,25.30
2022-12-11T17:23:24.283Z,27.92
2022-12-11T17:25:50.554Z,26.13
2022-12-11T17:28:16.852Z,27.02
2022-12-11T17:30:43.636Z,25.13
2022-12-11T17:33:10.300Z,23.20
2022-12-11T17:35:36.964Z,28.67
2022-12-11T17:38:05.006Z,22.85
2022-12-11T17:40:31.273Z,26.58
2022-12-11T17:42:57.540Z,28.15
2022-12-11T17:45:23.819Z,28.70
2022-12-11T17:47:50.068Z,34.90
2022-12-11T17:50:16.340Z,26.17
2022-12-11T17:52:44.299Z,28.13
2022-12-11T17:55:12.626Z,29.07
2022-12-11T17:57:39.148Z,24.63
2022-12-11T18:00:06.108Z,23.42
2022-12-11T18:02:38.661Z,25.85
2022-12-11T18:05:05.176Z,25.67
2022-12-11T18:07:35.604Z,26.35
2022-12-11T18:10:02.102Z,27.77
2022-12-11T18:12:29.699Z,32.67
2022-12-11T18:14:59.016Z,25.00
2022-12-11T18:17:25.307Z,29.40
2022-12-11T18:19:51.561Z,24.40
2022-12-11T18:22:17.816Z,23.67
2022-12-11T18:24:44.088Z,26.45
2022-12-11T18:27:10.328Z,21.60
2022-12-11T18:29:37.980Z,25.63
2022-12-11T18:32:04.517Z,22.77
2022-12-11T18:34:30.836Z,26.40
2022-12-11T18:36:57.134Z,22.98
2022-12-11T18:39:23.801Z,24.63
2022-12-11T18:42:03.482Z,21.60
2022-12-11T18:44:37.521Z,31.20
2022-12-11T18:47:03.792Z,23.90
2022-12-11T18:49:30.277Z,22.65
2022-12-11T18:51:58.364Z,24.60
2022-12-11T18:54:24.688Z,30.10
2022-12-11T18:56:51.013Z,29.85
2022-12-11T18:59:17.285Z,23.17
2022-12-11T19:01:44.948Z,27.48
2022-12-11T19:04:11.301Z,32.72
2022-12-11T19:06:37.760Z,28.15
2022-12-11T19:09:04.896Z,25.13
2022-12-11T19:11:32.489Z,23.88
2022-12-11T19:13:58.842Z,25.38
2022-12-11T19:16:26.270Z,27.23
2022-12-11T19:18:53.985Z,28.10
2022-12-11T19:21:20.376Z,26.60
2022-12-11T19:23:46.896Z,27.80
2022-12-11T19:26:13.795Z,29.50
2022-12-11T19:28:40.302Z,31.35
2022-12-11T19:31:08.217Z,27.75
2022-12-11T19:33:34.554Z,30.48
2022-12-11T19:36:03.020Z,26.45
2022-12-11T19:38:29.301Z,32.95
2022-12-11T19:40:55.637Z,28.17
2022-12-11T19:43:21.893Z,25.25
2022-12-11T19:45:48.207Z,27.35
2022-12-11T19:48:14.634Z,25.65
2022-12-11T19:50:40.914Z,26.50
2022-12-11T19:53:08.693Z,29.40
2022-12-11T19:55:34.974Z,32.75
2022-12-11T19:58:01.328Z,27.95
2022-12-11T20:00:27.660Z,30.95
2022-12-11T20:02:53.954Z,27.95
2022-12-11T20:05:20.221Z,26.17
2022-12-11T20:07:46.602Z,29.10
2022-12-11T20:10:14.249Z,25.25
2022-12-11T20:12:40.490Z,26.38
2022-12-11T20:15:07.197Z,31.75
2022-12-11T20:17:33.625Z,26.63
2022-12-11T20:20:00.197Z,25.90
2022-12-11T20:22:26.512Z,25.77
2022-12-11T20:24:52.838Z,29.10
2022-12-11T20:27:20.494Z,26.52
2022-12-11T20:29:46.763Z,27.20
2022-12-11T20:32:13.092Z,26.90
2022-12-11T20:34:39.439Z,31.95
2022-12-11T20:37:05.831Z,27.38
2022-12-11T20:39:32.185Z,28.77
2022-12-11T20:41:58.455Z,27.25
2022-12-11T20:44:26.090Z,30.42
2022-12-11T20:46:52.345Z,26.13
2022-12-11T20:49:18.639Z,27.25
2022-12-11T20:51:44.897Z,22.67
2022-12-11T20:54:11.768Z,22.60
2022-12-11T20:56:38.327Z,22.65
2022-12-11T20:59:04.600Z,23.13
2022-12-11T21:01:32.826Z,28.00
2022-12-11T21:03:59.370Z,25.93
2022-12-11T21:06:26.243Z,26.75
2022-12-11T21:08:52.826Z,25.98
2022-12-11T21:11:19.441Z,23.55
2022-12-11T21:13:49.481Z,26.92
2022-12-11T21:16:17.874Z,25.02
2022-12-11T21:18:45.534Z,31.30
2022-12-11T21:21:12.246Z,30.30
2022-12-11T21:23:38.628Z,28.60
2022-12-11T21:26:05.370Z,27.40
2022-12-11T21:28:35.517Z,27.70
2022-12-11T21:31:03.098Z,31.33
2022-12-11T21:33:29.406Z,27.50
2022-12-11T21:35:57.925Z,26.75
2022-12-11T21:38:24.543Z,33.40
2022-12-11T21:40:51.310Z,29.27
2022-12-11T21:43:17.616Z,34.53
2022-12-11T21:46:01.330Z,31.65
2022-12-11T21:48:27.918Z,26.42
2022-12-11T21:50:54.158Z,23.60
2022-12-11T21:53:21.736Z,25.83
2022-12-11T21:55:48.009Z,26.67
2022-12-11T21:58:14.289Z,26.52
2022-12-11T22:00:40.701Z,24.10
2022-12-11T22:03:07.069Z,27.88
2022-12-11T22:05:33.345Z,30.63
2022-12-11T22:07:59.712Z,22.02
2022-12-11T22:10:27.468Z,29.50
2022-12-11T22:12:53.737Z,28.77
2022-12-11T22:15:20.073Z,23.63
2022-12-11T22:17:46.373Z,23.98
2022-12-11T22:20:12.630Z,24.48
2022-12-11T22:22:38.905Z,23.27
2022-12-11T22:25:05.768Z,31.33
2022-12-11T22:27:33.428Z,26.33
2022-12-11T22:30:00.279Z,28.27
2022-12-11T22:32:26.565Z,28.10
2022-12-11T22:34:52.842Z,28.95
2022-12-11T22:37:19.155Z,26.63
2022-12-11T22:39:45.466Z,24.42
2022-12-11T22:42:11.738Z,18.23
2022-12-11T22:44:39.395Z,22.50
2022-12-11T22:47:05.645Z,23.13
2022-12-11T22:49:31.972Z,20.77
2022-12-11T22:51:58.265Z,28.00
2022-12-11T22:54:24.610Z,22.63
2022-12-11T22:56:50.871Z,22.95
2022-12-11T22:59:17.147Z,23.88
2022-12-11T23:01:44.765Z,24.52
2022-12-11T23:04:11.057Z,23.80
2022-12-11T23:06:37.505Z,25.27
2022-12-11T23:09:04.089Z,22.90
2022-12-11T23:11:31.678Z,24.67
2022-12-11T23:13:58.167Z,25.00
2022-12-11T23:16:26.540Z,22.23
2022-12-11T23:18:54.278Z,22.15
2022-12-11T23:21:21.126Z,24.90
2022-12-11T23:23:47.511Z,21.70
2022-12-11T23:26:14.237Z,19.60
2022-12-11T23:28:41.882Z,20.33
2022-12-11T23:31:08.845Z,19.02
2022-12-11T23:33:35.185Z,25.45
2022-12-11T23:36:03.171Z,25.35
2022-12-11T23:38:29.678Z,23.35
2022-12-11T23:40:56.202Z,25.83
2022-12-11T23:43:22.835Z,19.30
2022-12-11T23:45:49.112Z,17.75
2022-12-11T23:48:15.552Z,15.40
2022-12-11T23:50:42.396Z,25.38
2022-12-11T23:53:10.290Z,23.52
2022-12-11T23:55:38.484Z,26.33
2022-12-11T23:58:04.725Z,20.87
